Time;durP1;ratioP1;P1;durP2;ratioP2;P2;SDS_P1;SDS_P2;PMS_P1;PMS_P2;Temp;Humidity;BMP_temperature;BMP_pressure;BME280_temperature;BME280_humidity;BME280_pressure;Samples;Min_cycle;Max_cycle;Signal;HPM_P1;HPM_P2
2024/04/08 05:48:31;;;;;;;20.83;5.30;;;;;;;13.50;77.12;96143.41;2253849;25;20557;-65
2024/04/08 06:27:58;;;;;;;13.90;3.15;;;;;;;14.13;75.12;96155.03;2220493;26;20631;-63
2024/04/08 06:30:46;;;;;;;18.35;4.20;;;;;;;14.10;75.22;96147.34;2252863;25;21110;-64
2024/04/08 06:33:23;;;;;;;15.43;4.25;;;;;;;14.52;74.72;96148.03;2222602;26;20614;-64
2024/04/08 06:36:12;;;;;;;14.90;3.97;;;;;;;14.98;73.33;96148.41;2253420;25;21122;-64
2024/04/08 06:39:03;;;;;;;13.23;4.55;;;;;;;15.26;72.45;96151.72;2215203;26;20569;-64
2024/04/08 06:41:41;;;;;;;13.18;4.30;;;;;;;15.40;71.92;96154.22;2218771;26;20646;-64
2024/04/08 06:44:10;;;;;;;20.05;4.18;;;;;;;15.56;71.86;96153.13;2225184;26;20570;-64
2024/04/08 06:45:11;;;;;;;16.38;4.28;;;;;;;15.48;71.93;96158.94;2220918;26;20237;-65
2024/04/08 06:47:36;;;;;;;21.60;4.60;;;;;;;15.72;71.69;96158.09;2227443;25;20623;-64
2024/04/08 06:48:38;;;;;;;18.20;4.70;;;;;;;15.74;71.49;96156.19;2214932;26;20216;-65
2024/04/08 06:49:41;;;;;;;19.40;5.15;;;;;;;15.82;71.45;96152.06;2193670;26;20324;-64
2024/04/08 06:50:42;;;;;;;31.17;5.15;;;;;;;16.08;70.54;96145.84;2188196;27;20212;-65
2024/04/08 06:51:44;;;;;;;24.15;4.75;;;;;;;16.04;70.86;96154.94;2194462;27;20347;-65
2024/04/08 06:52:45;;;;;;;19.95;4.97;;;;;;;16.13;70.17;96151.59;2193826;27;20268;-65
2024/04/08 06:55:07;;;;;;;26.17;4.20;;;;;;;16.43;69.96;96156.34;2224716;26;20612;-64
2024/04/08 06:56:09;;;;;;;25.58;5.22;;;;;;;16.37;69.72;96150.72;2229613;26;20261;-65
2024/04/08 06:57:10;;;;;;;22.25;5.60;;;;;;;16.53;69.27;96153.84;2229575;26;20210;-65
2024/04/08 06:58:14;;;;;;;25.13;5.30;;;;;;;16.63;69.07;96140.78;2222855;26;20216;-64
2024/04/08 06:59:16;;;;;;;22.52;5.22;;;;;;;16.54;69.06;96139.69;2205563;26;20848;-65
2024/04/08 07:00:18;;;;;;;16.85;5.25;;;;;;;16.95;68.22;96137.47;2201591;26;21348;-67
2024/04/08 07:01:20;;;;;;;31.13;5.57;;;;;;;17.16;68.44;96140.22;2201033;27;20213;-67
2024/04/08 07:02:22;;;;;;;19.42;4.63;;;;;;;17.18;67.50;96129.53;2201607;26;20287;-66
2024/04/08 07:03:23;;;;;;;20.33;4.68;;;;;;;17.18;67.69;96129.53;2201365;27;20217;-67
2024/04/08 07:04:25;;;;;;;28.63;4.40;;;;;;;17.53;67.07;96132.00;2201399;26;20393;-67
2024/04/08 07:05:26;;;;;;;20.60;4.93;;;;;;;17.60;66.44;96127.06;2201136;27;20236;-67
2024/04/08 07:06:28;;;;;;;30.85;4.88;;;;;;;17.78;66.70;96127.38;2201776;26;20220;-67
2024/04/08 07:07:29;;;;;;;13.38;5.45;;;;;;;17.61;66.62;96126.94;2201659;26;20344;-67
2024/04/08 07:08:31;;;;;;;11.50;4.57;;;;;;;17.80;66.93;96128.06;2201128;26;20217;-67
2024/04/08 07:09:32;;;;;;;15.88;4.18;;;;;;;17.92;66.49;96128.88;2201590;26;20299;-66
2024/04/08 07:10:35;;;;;;;15.70;4.30;;;;;;;18.05;65.44;96124.25;2201605;26;20291;-67
2024/04/08 07:11:36;;;;;;;41.78;5.85;;;;;;;18.22;65.28;96125.50;2200837;27;20319;-66
2024/04/08 07:12:38;;;;;;;21.90;4.80;;;;;;;18.51;64.78;96126.66;2201738;26;20217;-67
2024/04/08 07:13:40;;;;;;;12.77;3.83;;;;;;;18.47;64.30;96119.97;2200988;26;20233;-67
2024/04/08 07:14:41;;;;;;;25.25;4.50;;;;;;;18.24;64.82;96128.03;2201434;26;20612;-67
2024/04/08 07:15:51;;;;;;;13.45;4.03;;;;;;;18.26;64.42;96121.63;2201658;26;20217;-68
2024/04/08 07:16:53;;;;;;;14.73;3.50;;;;;;;18.64;65.04;96126.44;2195786;27;20255;-67
2024/04/08 07:17:55;;;;;;;18.38;4.88;;;;;;;18.87;63.72;96130.59;2195804;27;20527;-67
2024/04/08 07:18:57;;;;;;;38.75;5.00;;;;;;;18.78;63.77;96128.75;2200186;26;20785;-67
2024/04/08 07:19:58;;;;;;;16.67;4.50;;;;;;;18.97;64.00;96124.53;2201550;26;20221;-66
2024/04/08 07:21:02;;;;;;;28.52;4.78;;;;;;;19.12;62.71;96128.47;2201476;26;20224;-67
2024/04/08 07:22:03;;;;;;;22.65;4.65;;;;;;;19.44;61.62;96124.84;2201650;26;20348;-66
2024/04/08 07:23:05;;;;;;;17.63;4.18;;;;;;;19.49;61.68;96130.56;2201642;26;20266;-66
2024/04/08 07:24:07;;;;;;;20.48;5.47;;;;;;;19.70;62.23;96126.94;2201176;26;20257;-66
2024/04/08 07:25:09;;;;;;;27.17;4.18;;;;;;;19.73;61.36;96124.88;2200598;27;20675;-67
2024/04/08 07:26:11;;;;;;;30.42;4.75;;;;;;;19.86;60.59;96119.31;2201276;26;20562;-67
2024/04/08 07:27:12;;;;;;;27.35;5.03;;;;;;;19.99;60.81;96127.00;2201486;26;20523;-66
2024/04/08 07:28:14;;;;;;;19.13;6.30;;;;;;;20.22;60.32;96127.53;2201306;27;20330;-66
2024/04/08 07:29:15;;;;;;;20.92;4.53;;;;;;;20.23;60.31;96128.38;2200858;26;20248;-66
2024/04/08 07:30:17;;;;;;;21.70;4.55;;;;;;;20.38;59.31;96131.44;2201554;26;20299;-66
2024/04/08 07:31:19;;;;;;;24.30;5.18;;;;;;;20.33;60.07;96129.19;2201503;26;20264;-67
2024/04/08 07:32:20;;;;;;;17.77;3.75;;;;;;;20.57;58.58;96114.66;2201351;27;20290;-66
2024/04/08 07:33:22;;;;;;;20.33;4.72;;;;;;;20.39;58.08;96120.69;2201654;26;20509;-67
2024/04/08 07:34:23;;;;;;;24.40;4.43;;;;;;;20.51;58.49;96123.16;2201254;26;20261;-67
2024/04/08 07:35:25;;;;;;;28.60;4.45;;;;;;;20.68;57.88;96113.63;2201518;26;20217;-67
2024/04/08 07:36:28;;;;;;;27.95;4.20;;;;;;;21.06;56.93;96113.66;2195442;27;20895;-66
2024/04/08 07:37:30;;;;;;;14.45;3.58;;;;;;;21.08;56.56;96116.97;2195660;27;20218;-66
2024/04/08 07:38:31;;;;;;;15.80;4.15;;;;;;;21.32;56.16;96114.63;2200487;26;20319;-67
2024/04/08 07:39:33;;;;;;;20.95;3.20;;;;;;;21.06;55.90;96111.00;2193427;27;20288;-66
2024/04/08 07:40:41;;;;;;;21.00;3.30;;;;;;;21.28;56.28;96112.41;2195884;27;20261;-66
2024/04/08 07:41:43;;;;;;;18.38;3.10;;;;;;;21.62;54.77;96111.81;2200639;27;20252;-67
2024/04/08 07:42:45;;;;;;;17.10;3.08;;;;;;;21.74;54.12;96115.09;2200965;27;20303;-66
2024/04/08 07:43:46;;;;;;;12.88;3.10;;;;;;;21.66;53.39;96105.22;2197648;26;20537;-66
2024/04/08 07:44:51;;;;;;;11.60;2.72;;;;;;;21.73;53.31;96106.28;2201433;26;20266;-67
2024/04/08 07:45:53;;;;;;;14.43;3.35;;;;;;;22.11;51.58;96116.78;2201533;26;20408;-67
2024/04/08 07:46:54;;;;;;;13.80;2.95;;;;;;;22.17;50.69;96121.47;2200982;27;20217;-67
2024/04/08 07:47:56;;;;;;;16.25;2.78;;;;;;;22.39;51.52;96122.84;2201313;26;20217;-67
2024/04/08 07:48:57;;;;;;;11.95;2.83;;;;;;;22.42;50.08;96124.34;2200719;26;20253;-67
2024/04/08 07:49:59;;;;;;;21.50;3.42;;;;;;;22.04;53.10;96119.19;2201383;26;20292;-67
2024/04/08 07:51:01;;;;;;;14.48;2.33;;;;;;;21.97;52.84;96120.81;2199856;27;20954;-67
2024/04/08 07:52:03;;;;;;;22.73;3.35;;;;;;;21.86;53.61;96127.16;2201409;26;20225;-67
2024/04/08 07:53:05;;;;;;;8.02;2.65;;;;;;;21.76;53.50;96126.41;2201326;26;20220;-67
2024/04/08 07:54:07;;;;;;;13.27;2.42;;;;;;;21.61;52.03;96126.94;2200511;26;20315;-67
2024/04/08 07:55:09;;;;;;;17.67;2.80;;;;;;;22.23;51.19;96125.34;2201577;26;20264;-67
2024/04/08 07:56:11;;;;;;;18.15;4.00;;;;;;;22.27;50.84;96124.88;2200851;27;20555;-67
2024/04/08 07:57:12;;;;;;;21.70;3.10;;;;;;;22.37;52.45;96121.31;2200654;26;20256;-67
2024/04/08 07:58:14;;;;;;;16.00;2.55;;;;;;;22.27;52.44;96129.34;2201204;26;20213;-67
2024/04/08 07:59:15;;;;;;;9.20;2.90;;;;;;;22.28;51.03;96121.25;2197249;26;20544;-67
2024/04/08 08:00:17;;;;;;;13.48;2.70;;;;;;;22.58;47.40;96118.31;2201942;26;20213;-67
2024/04/08 08:01:18;;;;;;;11.35;2.25;;;;;;;22.61;47.45;96118.00;2201541;26;20221;-67
2024/04/08 08:02:20;;;;;;;17.85;3.10;;;;;;;22.77;48.06;96125.25;2201460;26;20267;-67
2024/04/08 08:03:21;;;;;;;14.00;2.53;;;;;;;22.99;48.92;96122.06;2201543;26;20228;-67
2024/04/08 08:04:23;;;;;;;13.32;2.25;;;;;;;22.93;48.44;96125.34;2200446;26;20939;-67
2024/04/08 08:05:25;;;;;;;10.20;2.20;;;;;;;22.93;47.62;96120.03;2201420;26;20221;-67
2024/04/08 08:06:27;;;;;;;13.70;2.70;;;;;;;23.26;46.70;96125.53;2195545;26;20400;-67
2024/04/08 08:07:30;;;;;;;15.18;2.38;;;;;;;23.64;45.82;96127.78;2195040;27;20268;-67
2024/04/08 08:08:32;;;;;;;10.25;2.38;;;;;;;23.98;45.46;96126.06;2194525;26;20241;-67
2024/04/08 08:09:33;;;;;;;13.98;2.00;;;;;;;24.23;45.32;96130.41;2191490;27;20672;-68
2024/04/08 08:10:35;;;;;;;13.15;2.65;;;;;;;24.54;44.44;96127.03;2187769;27;20277;-67
2024/04/08 08:11:37;;;;;;;14.50;2.90;;;;;;;24.01;44.30;96129.25;2192021;27;20222;-67
2024/04/08 08:12:39;;;;;;;14.23;2.47;;;;;;;24.35;44.62;96122.06;2195233;26;20209;-65
2024/04/08 08:13:41;;;;;;;13.38;2.03;;;;;;;24.18;45.16;96121.25;2192503;26;20256;-66
2024/04/08 08:14:43;;;;;;;11.40;2.00;;;;;;;24.33;45.20;96122.25;2195273;26;20210;-65
2024/04/08 08:15:53;;;;;;;10.35;2.95;;;;;;;23.98;45.18;96116.22;2194769;27;20353;-65
2024/04/08 08:16:55;;;;;;;11.75;2.03;;;;;;;23.21;45.95;96119.84;2195106;27;20260;-65
2024/04/08 08:17:57;;;;;;;14.32;3.10;;;;;;;24.02;44.94;96112.22;2195195;26;21006;-65
2024/04/08 08:18:58;;;;;;;15.40;2.47;;;;;;;24.12;42.71;96112.06;2194643;26;20272;-65
2024/04/08 08:20:00;;;;;;;16.25;2.60;;;;;;;24.23;44.27;96114.41;2195329;26;20615;-65
2024/04/08 08:21:02;;;;;;;15.13;2.40;;;;;;;23.83;44.90;96113.31;2193533;27;20209;-66
2024/04/08 08:22:04;;;;;;;11.82;2.13;;;;;;;24.15;44.35;96114.41;2208606;26;20679;-65
2024/04/08 08:23:05;;;;;;;10.93;2.25;;;;;;;24.12;44.93;96112.91;2189867;27;20230;-65
2024/04/08 08:24:07;;;;;;;11.82;2.45;;;;;;;24.05;45.68;96108.38;2188772;26;20249;-65
2024/04/08 08:25:09;;;;;;;8.82;1.95;;;;;;;23.95;44.93;96108.56;2195269;26;20268;-65
2024/04/08 08:26:11;;;;;;;12.98;2.33;;;;;;;23.92;43.17;96108.88;2195039;26;20575;-65
2024/04/08 08:27:13;;;;;;;15.07;2.13;;;;;;;23.97;43.61;96103.88;2192559;27;20268;-65
2024/04/08 08:28:15;;;;;;;13.68;2.22;;;;;;;24.16;44.36;96112.56;2195394;26;20221;-65
2024/04/08 08:29:17;;;;;;;8.68;2.38;;;;;;;23.75;41.68;96113.34;2194511;26;20280;-65
2024/04/08 08:30:18;;;;;;;8.60;2.10;;;;;;;23.42;41.83;96108.75;2195184;26;20213;-65
2024/04/08 08:31:20;;;;;;;9.90;1.95;;;;;;;23.25;41.34;96123.00;2193949;27;20257;-65
2024/04/08 08:32:22;;;;;;;11.85;2.50;;;;;;;22.93;41.79;96113.84;2195340;26;20233;-65
2024/04/08 08:33:23;;;;;;;16.83;2.03;;;;;;;22.93;42.52;96117.34;2195105;26;20222;-65
2024/04/08 08:34:25;;;;;;;8.68;1.70;;;;;;;22.97;43.89;96109.91;2199541;26;20518;-66
2024/04/08 08:35:26;;;;;;;11.27;2.13;;;;;;;22.85;43.63;96114.63;2198308;26;20317;-65
2024/04/08 08:36:28;;;;;;;14.30;2.92;;;;;;;22.84;43.97;96112.97;2195004;26;20222;-66
2024/04/08 08:37:30;;;;;;;19.60;2.47;;;;;;;22.70;44.42;96109.06;2194362;27;20218;-65
2024/04/08 08:38:33;;;;;;;4.38;1.73;;;;;;;22.85;44.18;96109.31;2194570;26;20213;-66
2024/04/08 08:39:37;;;;;;;6.70;2.08;;;;;;;22.85;43.65;96095.19;2195038;26;20683;-66
2024/04/08 08:40:43;;;;;;;7.50;1.80;;;;;;;23.24;43.40;96106.19;2194063;27;20676;-66
2024/04/08 08:41:51;;;;;;;9.57;1.77;;;;;;;23.19;43.34;96105.84;2195102;26;20712;-65
2024/04/08 08:42:55;;;;;;;8.00;1.60;;;;;;;23.09;44.09;96105.13;2194746;26;20668;-66
2024/04/08 08:44:01;;;;;;;11.35;2.67;;;;;;;23.25;42.94;96107.88;2194256;26;20253;-66
2024/04/08 08:45:05;;;;;;;5.68;1.50;;;;;;;23.07;43.49;96099.09;2193704;27;20218;-66
2024/04/08 08:46:08;;;;;;;10.00;1.88;;;;;;;23.28;42.93;96098.72;2195014;26;20352;-65
2024/04/08 08:47:10;;;;;;;8.43;1.83;;;;;;;22.92;43.24;96101.53;2196725;26;20225;-65
2024/04/08 08:48:12;;;;;;;13.55;2.63;;;;;;;22.80;43.11;96093.84;2195870;26;20746;-66
2024/04/08 08:49:17;;;;;;;9.55;2.00;;;;;;;23.11;43.13;96095.97;2194596;26;20580;-65
2024/04/08 08:50:19;;;;;;;15.32;2.65;;;;;;;23.05;43.73;96093.94;2194227;27;20214;-65
2024/04/08 08:51:21;;;;;;;25.77;3.50;;;;;;;23.04;43.90;96094.94;2194419;27;20221;-65
2024/04/08 08:52:24;;;;;;;21.30;2.45;;;;;;;23.28;44.26;96096.06;2194906;26;20521;-65
2024/04/08 08:53:26;;;;;;;21.67;3.05;;;;;;;22.97;44.40;96086.75;2194860;26;20210;-65
2024/04/08 08:54:27;;;;;;;14.07;2.50;;;;;;;23.04;43.90;96094.94;2192988;26;20296;-65
2024/04/08 08:55:30;;;;;;;15.98;2.10;;;;;;;22.91;44.44;96083.91;2194634;26;20226;-65
2024/04/08 08:56:32;;;;;;;13.68;2.30;;;;;;;23.26;43.97;96082.91;2192151;27;20763;-65
2024/04/08 08:57:34;;;;;;;7.00;1.80;;;;;;;23.31;43.38;96083.25;2195017;26;20229;-66
2024/04/08 08:58:36;;;;;;;7.38;1.70;;;;;;;23.53;43.55;96090.78;2193612;26;20301;-65
2024/04/08 08:59:39;;;;;;;17.50;1.98;;;;;;;23.50;44.32;96091.13;2193881;27;20221;-65
2024/04/08 09:00:40;;;;;;;8.88;1.98;;;;;;;23.42;44.68;96094.59;2195067;26;20222;-65
2024/04/08 09:01:42;;;;;;;19.48;2.75;;;;;;;23.38;44.46;96098.59;2194989;26;20316;-65
2024/04/08 09:02:45;;;;;;;9.98;1.83;;;;;;;23.25;44.12;96094.56;2188128;27;21213;-65
2024/04/08 09:03:47;;;;;;;13.45;3.05;;;;;;;23.05;43.44;96091.28;2188741;26;20221;-65
2024/04/08 09:04:49;;;;;;;14.48;2.55;;;;;;;23.12;43.17;96092.31;2194606;26;20222;-65
2024/04/08 09:05:54;;;;;;;11.27;2.13;;;;;;;22.93;42.69;96095.22;2193762;27;20214;-65
2024/04/08 09:06:56;;;;;;;6.82;2.20;;;;;;;23.10;42.67;96101.47;2194068;27;20228;-65
2024/04/08 09:07:58;;;;;;;8.70;2.28;;;;;;;22.86;42.80;96080.88;2194963;26;20261;-65
2024/04/08 09:09:01;;;;;;;10.57;1.83;;;;;;;23.15;42.77;96102.66;2193952;26;20245;-65
2024/04/08 09:10:03;;;;;;;17.90;2.40;;;;;;;23.02;42.24;96091.63;2194752;27;20786;-65
2024/04/08 09:11:07;;;;;;;10.00;1.90;;;;;;;23.26;42.94;96090.91;2194927;26;20260;-65
2024/04/08 09:12:10;;;;;;;17.13;2.10;;;;;;;23.17;42.21;96085.69;2194911;26;20277;-65
2024/04/08 09:13:25;;;;;;;11.35;2.50;;;;;;;23.41;42.44;96095.59;2194989;26;20249;-65
2024/04/08 09:14:30;;;;;;;16.20;2.95;;;;;;;23.68;41.96;96096.31;2194275;26;20330;-65
2024/04/08 09:15:31;;;;;;;10.55;2.22;;;;;;;23.21;41.90;96087.91;2193561;27;20739;-65
2024/04/08 09:16:33;;;;;;;6.30;1.75;;;;;;;23.36;41.68;96084.59;2194477;27;20655;-65
2024/04/08 09:17:35;;;;;;;10.85;2.70;;;;;;;23.34;42.01;96087.44;2194297;26;20248;-65
2024/04/08 09:18:36;;;;;;;15.18;2.22;;;;;;;23.58;41.58;96093.78;2187274;26;20774;-65
2024/04/08 09:19:38;;;;;;;10.77;1.77;;;;;;;23.85;41.00;96082.03;2195073;26;20222;-64
2024/04/08 09:20:40;;;;;;;12.45;2.17;;;;;;;24.15;40.37;96086.91;2194887;26;20226;-64
2024/04/08 09:21:42;;;;;;;11.40;1.88;;;;;;;23.73;41.11;96091.34;2202471;26;20500;-65
2024/04/08 09:22:43;;;;;;;10.02;2.05;;;;;;;23.98;41.12;96086.06;2200871;26;20226;-64
2024/04/08 09:23:48;;;;;;;8.32;1.83;;;;;;;23.92;41.39;96074.22;2194279;26;20222;-64
2024/04/08 09:24:50;;;;;;;12.65;2.30;;;;;;;24.15;41.77;96084.22;2194711;27;20331;-64
2024/04/08 09:25:52;;;;;;;13.98;2.45;;;;;;;24.15;40.82;96085.06;2192728;27;20213;-65
2024/04/08 09:26:54;;;;;;;13.25;2.15;;;;;;;23.96;41.12;96086.25;2195047;26;20268;-65
2024/04/08 09:27:56;;;;;;;17.88;2.38;;;;;;;24.25;40.45;96087.56;2193970;27;20644;-64
2024/04/08 09:29:03;;;;;;;13.63;2.22;;;;;;;24.38;40.80;96087.03;2193796;26;20389;-65
2024/04/08 09:30:05;;;;;;;6.13;1.90;;;;;;;24.43;39.04;96082.06;2194902;27;20285;-64
2024/04/08 09:31:07;;;;;;;7.35;2.00;;;;;;;24.64;39.21;96084.19;2193918;27;20221;-65
2024/04/08 09:32:09;;;;;;;11.13;2.28;;;;;;;24.58;40.41;96079.50;2193813;27;20221;-65
2024/04/08 09:33:13;;;;;;;19.95;2.38;;;;;;;24.49;39.63;96086.69;2195199;26;20260;-64
2024/04/08 09:34:15;;;;;;;12.18;2.25;;;;;;;24.45;39.83;96090.69;2194546;26;20654;-65
2024/04/08 09:35:16;;;;;;;6.78;1.80;;;;;;;24.24;39.13;96083.22;2195058;26;20225;-65
2024/04/08 09:36:18;;;;;;;13.50;2.25;;;;;;;24.55;40.11;96080.69;2195040;26;20214;-65
2024/04/08 09:37:21;;;;;;;14.57;2.30;;;;;;;24.98;40.00;96084.94;2194682;27;20217;-65
2024/04/08 09:38:24;;;;;;;10.57;2.25;;;;;;;25.06;39.56;96083.06;2194916;26;20315;-65
2024/04/08 09:39:26;;;;;;;6.75;1.63;;;;;;;25.14;39.89;96081.38;2194661;26;20696;-64
2024/04/08 09:40:29;;;;;;;11.20;2.00;;;;;;;25.13;39.25;96082.38;2195080;26;20257;-64
2024/04/08 09:41:31;;;;;;;20.38;2.20;;;;;;;24.84;38.89;96087.31;2194073;27;20214;-64
2024/04/08 09:42:33;;;;;;;6.47;1.42;;;;;;;25.17;38.64;96081.84;2194874;26;20260;-65
2024/04/08 09:43:36;;;;;;;8.63;2.30;;;;;;;24.91;38.93;96079.44;2194112;26;20225;-64
2024/04/08 09:44:43;;;;;;;11.70;2.40;;;;;;;24.99;38.01;96084.78;2188304;27;20601;-65
2024/04/08 09:45:45;;;;;;;21.00;2.67;;;;;;;24.90;38.96;96072.44;2188885;27;20261;-65
2024/04/08 09:46:48;;;;;;;8.80;2.10;;;;;;;24.91;39.14;96074.97;2191425;27;20214;-65
2024/04/08 09:47:51;;;;;;;16.45;2.70;;;;;;;24.91;39.08;96082.97;2194539;27;20256;-65
2024/04/08 09:48:53;;;;;;;12.15;2.20;;;;;;;25.37;39.12;96078.78;2194132;26;20664;-65
2024/04/08 09:49:58;;;;;;;12.93;2.30;;;;;;;25.40;38.81;96081.13;2193736;27;20226;-65
2024/04/08 09:51:01;;;;;;;10.85;1.90;;;;;;;25.51;37.60;96070.03;2194064;27;20225;-65
2024/04/08 09:52:05;;;;;;;25.48;2.17;;;;;;;25.75;38.01;96063.69;2194692;26;20222;-64
2024/04/08 09:53:07;;;;;;;15.57;2.20;;;;;;;25.78;38.01;96062.50;2194569;26;20260;-65
2024/04/08 09:54:09;;;;;;;8.05;1.98;;;;;;;25.47;37.21;96066.06;2194159;26;20252;-65
2024/04/08 09:55:11;;;;;;;13.60;2.20;;;;;;;25.43;38.03;96057.56;2194427;27;20264;-65
2024/04/08 09:56:17;;;;;;;25.33;2.30;;;;;;;25.04;37.54;96062.88;2194634;26;20217;-65
2024/04/08 09:57:27;;;;;;;9.65;1.85;;;;;;;25.29;38.07;96065.44;2194560;27;20210;-65
2024/04/08 09:58:32;;;;;;;14.10;1.80;;;;;;;25.97;36.97;96063.03;2193624;27;20300;-65
2024/04/08 09:59:35;;;;;;;14.50;3.05;;;;;;;26.13;37.85;96070.13;2193044;26;20359;-65
2024/04/08 10:00:40;;;;;;;13.07;2.17;;;;;;;25.84;37.09;96066.28;2194546;26;20213;-65
2024/04/08 10:01:44;;;;;;;6.78;2.22;;;;;;;25.46;37.31;96069.72;2192928;27;20272;-65
2024/04/08 10:02:49;;;;;;;12.00;2.33;;;;;;;25.75;37.34;96073.56;2194617;26;20221;-65
2024/04/08 10:03:54;;;;;;;7.90;1.73;;;;;;;26.14;36.87;96064.56;2193428;26;20225;-65
2024/04/08 10:05:02;;;;;;;16.27;3.20;;;;;;;26.44;36.71;96074.53;2194446;26;20322;-65
2024/04/08 10:06:04;;;;;;;14.27;1.92;;;;;;;26.79;36.25;96069.50;2194433;26;20262;-65
2024/04/08 10:07:06;;;;;;;10.93;1.80;;;;;;;26.84;36.29;96075.13;2194438;26;20333;-65
2024/04/08 10:08:09;;;;;;;10.35;2.25;;;;;;;26.29;36.05;96069.16;2193886;27;20225;-65
2024/04/08 10:09:11;;;;;;;13.77;2.10;;;;;;;25.88;35.76;96067.63;2193824;26;20253;-65
2024/04/08 10:10:14;;;;;;;10.07;2.03;;;;;;;25.65;35.92;96070.25;2192799;27;20225;-65
2024/04/08 10:11:16;;;;;;;8.35;1.63;;;;;;;25.89;36.14;96063.91;2208088;26;20216;-64
2024/04/08 10:12:17;;;;;;;10.52;2.00;;;;;;;25.98;35.97;96068.22;2207333;26;20259;-65
2024/04/08 10:13:19;;;;;;;9.02;2.78;;;;;;;26.12;35.95;96068.44;2194486;26;20213;-65
2024/04/08 10:14:23;;;;;;;11.05;2.35;;;;;;;26.19;34.76;96064.03;2193804;26;20260;-65
2024/04/08 10:15:34;;;;;;;9.35;1.90;;;;;;;26.23;35.10;96066.19;2196967;26;20279;-65
2024/04/08 10:16:37;;;;;;;12.95;1.60;;;;;;;26.26;34.44;96065.00;2176700;27;20234;-65
2024/04/08 10:17:46;;;;;;;9.35;1.63;;;;;;;26.12;34.32;96060.41;2187028;27;20218;-64
2024/04/08 10:18:52;;;;;;;8.75;2.40;;;;;;;26.22;35.54;96067.19;2194008;26;20229;-65
2024/04/08 10:19:53;;;;;;;9.77;1.65;;;;;;;25.65;35.43;96068.44;2194534;26;20217;-65
2024/04/08 10:20:55;;;;;;;15.18;2.10;;;;;;;25.77;35.17;96066.19;2194441;26;20681;-64
2024/04/08 10:22:01;;;;;;;10.93;1.58;;;;;;;25.89;34.72;96063.91;2194089;27;20217;-64
2024/04/08 10:23:02;;;;;;;14.68;2.70;;;;;;;26.11;34.29;96062.28;2194477;26;20217;-65
2024/04/08 10:24:05;;;;;;;17.17;2.40;;;;;;;26.49;34.48;96053.41;2193111;26;20257;-65
2024/04/08 10:25:42;;;;;;;22.05;1.90;;;;;;;26.60;34.87;96061.00;2197632;26;20233;-65
2024/04/08 10:26:44;;;;;;;9.85;2.03;;;;;;;26.65;35.03;96071.13;2191979;26;20256;-65
2024/04/08 10:27:45;;;;;;;13.23;2.33;;;;;;;26.61;34.48;96056.47;2194519;26;20273;-65
2024/04/08 10:28:47;;;;;;;13.02;1.80;;;;;;;26.33;34.82;96059.75;2192035;26;20260;-65
2024/04/08 10:29:56;;;;;;;15.30;2.17;;;;;;;26.66;34.34;96048.69;2193156;27;20226;-64
2024/04/08 10:31:02;;;;;;;15.23;2.35;;;;;;;26.64;33.51;96045.38;2194374;26;21067;-65
2024/04/08 10:32:06;;;;;;;18.15;1.92;;;;;;;27.02;34.19;96040.78;2192624;27;20319;-65
2024/04/08 10:33:10;;;;;;;10.07;2.47;;;;;;;27.21;33.64;96043.88;2194319;26;20225;-67
2024/04/08 10:34:13;;;;;;;8.73;1.95;;;;;;;26.39;34.64;96037.59;2193070;26;21111;-66
2024/04/08 10:35:16;;;;;;;10.27;1.52;;;;;;;27.05;33.35;96040.41;2194211;26;20214;-67
2024/04/08 10:36:17;;;;;;;7.43;2.45;;;;;;;26.89;33.61;96036.09;2190106;27;20225;-66
2024/04/08 10:37:19;;;;;;;8.48;2.05;;;;;;;27.13;33.71;96035.97;2194315;26;20217;-67
2024/04/08 10:38:22;;;;;;;15.63;1.80;;;;;;;27.12;33.77;96028.94;2194385;26;20284;-67
2024/04/08 10:39:27;;;;;;;8.25;2.03;;;;;;;26.89;33.26;96037.91;2193586;26;20246;-67
2024/04/08 10:40:29;;;;;;;24.33;2.33;;;;;;;27.24;33.22;96037.34;2194228;26;20297;-67
2024/04/08 10:41:30;;;;;;;8.45;1.85;;;;;;;27.52;33.45;96038.28;2193058;27;20229;-66
2024/04/08 10:42:32;;;;;;;10.30;2.33;;;;;;;27.03;33.10;96022.84;2193396;27;20218;-67
2024/04/08 10:43:37;;;;;;;15.50;2.80;;;;;;;27.41;32.06;96024.56;2194458;26;20323;-67
2024/04/08 10:44:38;;;;;;;9.27;2.05;;;;;;;27.65;32.50;96031.41;2186138;26;20555;-66
2024/04/08 10:45:40;;;;;;;14.70;2.70;;;;;;;27.58;32.08;96028.66;2194329;26;20268;-67
2024/04/08 10:46:42;;;;;;;8.13;1.98;;;;;;;27.99;32.30;96022.66;2194250;26;20269;-67
2024/04/08 10:47:44;;;;;;;11.52;1.95;;;;;;;27.92;31.92;96027.16;2193699;26;20268;-66
2024/04/08 10:48:45;;;;;;;10.05;2.15;;;;;;;27.72;32.18;96026.09;2193003;26;20217;-66
2024/04/08 10:49:47;;;;;;;6.03;1.70;;;;;;;27.74;32.35;96030.25;2186096;27;20222;-67
2024/04/08 10:50:49;;;;;;;11.98;2.25;;;;;;;27.40;32.16;96037.16;2188150;27;20724;-66
2024/04/08 10:51:51;;;;;;;13.07;2.17;;;;;;;27.76;31.92;96035.44;2194313;26;20225;-66
2024/04/08 10:52:53;;;;;;;18.55;2.45;;;;;;;27.86;31.99;96023.38;2194148;26;20263;-66
2024/04/08 10:53:54;;;;;;;5.40;1.88;;;;;;;27.62;31.95;96035.31;2193315;26;20221;-66
2024/04/08 10:54:56;;;;;;;12.15;2.42;;;;;;;27.43;32.42;96026.03;2193799;27;20233;-66
2024/04/08 10:56:00;;;;;;;14.95;2.10;;;;;;;27.62;32.67;96018.41;2194312;26;20349;-66
2024/04/08 10:57:02;;;;;;;16.30;2.05;;;;;;;27.95;32.88;96032.09;2193979;27;20981;-66
2024/04/08 10:58:04;;;;;;;19.90;2.83;;;;;;;28.13;32.18;96028.97;2194350;26;20718;-66
2024/04/08 10:59:06;;;;;;;10.23;2.03;;;;;;;28.24;31.61;96037.53;2193298;26;20249;-66
2024/04/08 11:00:09;;;;;;;13.45;2.33;;;;;;;28.36;31.16;96030.59;2194291;26;21275;-66
2024/04/08 11:01:11;;;;;;;18.67;2.45;;;;;;;29.00;30.69;96032.25;2194091;26;20689;-66
2024/04/08 11:02:14;;;;;;;17.85;2.33;;;;;;;29.11;30.96;96030.03;2186871;27;20210;-66
2024/04/08 11:03:17;;;;;;;12.40;2.10;;;;;;;28.94;31.57;96026.88;2187702;27;20226;-66
2024/04/08 11:04:19;;;;;;;10.32;2.38;;;;;;;29.42;32.12;96023.31;2192994;26;20291;-64
2024/04/08 11:05:21;;;;;;;9.20;2.35;;;;;;;29.62;31.74;96028.75;2193903;27;20218;-64
2024/04/08 11:06:23;;;;;;;18.23;2.67;;;;;;;29.03;31.07;96027.50;2194070;27;20226;-64
2024/04/08 11:07:24;;;;;;;10.38;2.53;;;;;;;27.92;31.06;96031.66;2193104;27;20464;-64
2024/04/08 11:08:27;;;;;;;12.10;1.85;;;;;;;27.82;32.30;96032.81;2194074;26;20225;-64
2024/04/08 11:09:29;;;;;;;10.90;2.70;;;;;;;27.85;31.71;96040.47;2193730;26;20253;-65
2024/04/08 11:10:30;;;;;;;20.67;2.60;;;;;;;28.08;32.06;96042.16;2193425;27;20384;-64
2024/04/08 11:11:33;;;;;;;10.75;2.88;;;;;;;28.35;31.59;96042.34;2191943;27;20237;-64
2024/04/08 11:12:34;;;;;;;20.70;2.92;;;;;;;28.41;31.16;96036.22;2192944;27;20256;-64
2024/04/08 11:13:36;;;;;;;20.45;2.30;;;;;;;28.89;30.92;96037.38;2194166;26;20543;-64
2024/04/08 11:14:37;;;;;;;13.73;2.85;;;;;;;28.74;30.74;96045.56;2193581;26;20274;-65
2024/04/08 11:15:40;;;;;;;17.65;2.63;;;;;;;28.02;31.42;96037.53;2194141;26;20522;-65
2024/04/08 11:16:42;;;;;;;22.50;3.03;;;;;;;28.01;30.78;96033.19;2193491;27;20214;-65
2024/04/08 11:17:44;;;;;;;11.55;2.13;;;;;;;28.41;31.51;96036.22;2194002;26;20260;-65
2024/04/08 11:18:50;;;;;;;17.25;2.30;;;;;;;29.11;31.15;96038.09;2193484;26;20285;-65
2024/04/08 11:19:58;;;;;;;15.73;2.80;;;;;;;29.22;30.85;96036.69;2191891;27;20218;-65
2024/04/08 11:21:04;;;;;;;15.85;2.38;;;;;;;28.85;31.42;96045.00;2193686;27;20217;-65
2024/04/08 11:22:08;;;;;;;18.42;2.30;;;;;;;28.77;31.75;96046.00;2193882;27;20217;-64
2024/04/08 11:23:12;;;;;;;10.15;2.17;;;;;;;28.28;31.67;96042.31;2193248;27;20304;-64
2024/04/08 11:24:13;;;;;;;17.23;2.47;;;;;;;28.23;31.38;96050.13;2193446;26;20249;-65
2024/04/08 11:25:16;;;;;;;19.60;3.30;;;;;;;27.89;31.56;96045.47;2194249;26;20732;-64
2024/04/08 11:26:19;;;;;;;18.80;2.80;;;;;;;28.17;31.58;96049.03;2193958;27;20272;-64
2024/04/08 11:27:24;;;;;;;29.47;3.27;;;;;;;28.43;32.40;96049.44;2191380;27;20452;-64
2024/04/08 11:28:26;;;;;;;6.80;2.07;;;;;;;27.93;31.47;96050.25;2194077;26;20520;-64
2024/04/08 11:29:27;;;;;;;23.75;2.92;;;;;;;27.52;32.32;96049.00;2197538;26;20479;-65
2024/04/08 11:30:35;;;;;;;10.20;2.72;;;;;;;27.28;32.02;96042.13;2196586;26;20260;-64
2024/04/08 11:31:37;;;;;;;21.73;2.50;;;;;;;26.90;32.80;96042.25;2191450;27;20260;-64